sensor_id;sensor_type;location;lat;lon;timestamp;pressure;altitude;pressure_sealevel;temperature;humidity
31299;BME280;17927;52.350;13.402;2023-03-04T00:01:35;101459.41;;;6.48;53.91
31299;BME280;17927;52.350;13.402;2023-03-04T00:04:00;101464.09;;;6.44;54.17
31299;BME280;17927;52.350;13.402;2023-03-04T00:06:25;101459.16;;;6.38;54.15
31299;BME280;17927;52.350;13.402;2023-03-04T00:08:50;101471.03;;;6.34;54.41
31299;BME280;17927;52.350;13.402;2023-03-04T00:11:16;101472.19;;;6.30;54.29
31299;BME280;17927;52.350;13.402;2023-03-04T00:13:41;101472.47;;;6.25;54.21
31299;BME280;17927;52.350;13.402;2023-03-04T00:16:06;101465.50;;;6.22;54.51
31299;BME280;17927;52.350;13.402;2023-03-04T00:18:31;101464.81;;;6.19;54.47
31299;BME280;17927;52.350;13.402;2023-03-04T00:20:57;101462.31;;;6.16;54.59
31299;BME280;17927;52.350;13.402;2023-03-04T00:23:22;101455.25;;;6.15;54.50
31299;BME280;17927;52.350;13.402;2023-03-04T00:25:47;101452.75;;;6.12;54.52
31299;BME280;17927;52.350;13.402;2023-03-04T00:28:12;101446.63;;;6.09;54.25
31299;BME280;17927;52.350;13.402;2023-03-04T00:30:38;101447.56;;;6.08;54.54
31299;BME280;17927;52.350;13.402;2023-03-04T00:33:03;101434.16;;;6.08;54.73
31299;BME280;17927;52.350;13.402;2023-03-04T00:35:28;101439.53;;;6.08;54.78
31299;BME280;17927;52.350;13.402;2023-03-04T00:37:53;101434.16;;;6.08;54.83
31299;BME280;17927;52.350;13.402;2023-03-04T00:40:19;101433.97;;;6.12;54.89
31299;BME280;17927;52.350;13.402;2023-03-04T00:42:44;101434.81;;;6.12;55.31
31299;BME280;17927;52.350;13.402;2023-03-04T00:45:09;101421.41;;;6.12;55.37
31299;BME280;17927;52.350;13.402;2023-03-04T00:47:35;101421.34;;;6.14;55.29
31299;BME280;17927;52.350;13.402;2023-03-04T00:50:00;101423.72;;;6.18;55.77
31299;BME280;17927;52.350;13.402;2023-03-04T00:52:26;101430.69;;;6.21;55.67
31299;BME280;17927;52.350;13.402;2023-03-04T00:54:51;101434.16;;;6.23;55.79
31299;BME280;17927;52.350;13.402;2023-03-04T00:57:16;101424.00;;;6.28;55.58
31299;BME280;17927;52.350;13.402;2023-03-04T00:59:41;101412.19;;;6.31;55.58
31299;BME280;17927;52.350;13.402;2023-03-04T01:02:08;101393.09;;;6.35;55.63
31299;BME280;17927;52.350;13.402;2023-03-04T01:04:33;101406.31;;;6.38;55.82
31299;BME280;17927;52.350;13.402;2023-03-04T01:06:58;101406.03;;;6.43;55.67
31299;BME280;17927;52.350;13.402;2023-03-04T01:09:24;101396.63;;;6.50;55.99
31299;BME280;17927;52.350;13.402;2023-03-04T01:11:50;101396.31;;;6.55;55.85
31299;BME280;17927;52.350;13.402;2023-03-04T01:14:16;101405.78;;;6.61;55.61
31299;BME280;17927;52.350;13.402;2023-03-04T01:16:41;101409.88;;;6.66;55.42
31299;BME280;17927;52.350;13.402;2023-03-04T01:19:06;101408.59;;;6.72;55.60
31299;BME280;17927;52.350;13.402;2023-03-04T01:21:31;101408.22;;;6.78;55.29
31299;BME280;17927;52.350;13.402;2023-03-04T01:23:57;101412.41;;;6.82;55.51
31299;BME280;17927;52.350;13.402;2023-03-04T01:26:22;101413.84;;;6.88;55.39
31299;BME280;17927;52.350;13.402;2023-03-04T01:28:47;101403.84;;;6.90;55.48
31299;BME280;17927;52.350;13.402;2023-03-04T01:31:13;101406.09;;;6.96;55.43
31299;BME280;17927;52.350;13.402;2023-03-04T01:33:38;101405.91;;;6.99;55.38
31299;BME280;17927;52.350;13.402;2023-03-04T01:36:03;101395.03;;;7.01;55.31
31299;BME280;17927;52.350;13.402;2023-03-04T01:38:28;101382.38;;;7.03;54.96
31299;BME280;17927;52.350;13.402;2023-03-04T01:40:54;101374.09;;;7.06;55.09
31299;BME280;17927;52.350;13.402;2023-03-04T01:43:26;101368.66;;;7.08;54.99
31299;BME280;17927;52.350;13.402;2023-03-04T01:45:53;101371.09;;;7.11;55.08
31299;BME280;17927;52.350;13.402;2023-03-04T01:48:24;101373.56;;;7.14;55.14
31299;BME280;17927;52.350;13.402;2023-03-04T01:50:50;101366.28;;;7.16;55.02
31299;BME280;17927;52.350;13.402;2023-03-04T01:53:20;101374.13;;;7.19;54.70
31299;BME280;17927;52.350;13.402;2023-03-04T01:55:47;101370.47;;;7.20;54.74
31299;BME280;17927;52.350;13.402;2023-03-04T01:58:12;101366.72;;;7.23;54.95
31299;BME280;17927;52.350;13.402;2023-03-04T02:00:37;101368.44;;;7.24;54.87
31299;BME280;17927;52.350;13.402;2023-03-04T02:03:10;101352.94;;;7.27;54.70
31299;BME280;17927;52.350;13.402;2023-03-04T02:05:40;101373.41;;;7.30;54.71
31299;BME280;17927;52.350;13.402;2023-03-04T02:08:06;101366.94;;;7.32;54.96
31299;BME280;17927;52.350;13.402;2023-03-04T02:10:32;101369.41;;;7.36;54.69
31299;BME280;17927;52.350;13.402;2023-03-04T02:13:00;101360.28;;;7.38;54.96
31299;BME280;17927;52.350;13.402;2023-03-04T02:15:25;101362.75;;;7.41;54.67
31299;BME280;17927;52.350;13.402;2023-03-04T02:17:51;101363.50;;;7.43;54.47
31299;BME280;17927;52.350;13.402;2023-03-04T02:20:24;101349.94;;;7.45;54.75
31299;BME280;17927;52.350;13.402;2023-03-04T02:25:32;101347.81;;;7.50;54.70
31299;BME280;17927;52.350;13.402;2023-03-04T02:27:59;101345.97;;;7.51;54.80
31299;BME280;17927;52.350;13.402;2023-03-04T02:30:25;101336.84;;;7.53;54.72
31299;BME280;17927;52.350;13.402;2023-03-04T02:32:51;101330.38;;;7.56;54.55
31299;BME280;17927;52.350;13.402;2023-03-04T02:35:18;101321.34;;;7.57;54.53
31299;BME280;17927;52.350;13.402;2023-03-04T02:37:44;101323.91;;;7.58;54.39
31299;BME280;17927;52.350;13.402;2023-03-04T02:40:29;101320.16;;;7.61;54.66
31299;BME280;17927;52.350;13.402;2023-03-04T02:42:58;101324.56;;;7.62;54.67
31299;BME280;17927;52.350;13.402;2023-03-04T02:45:44;101320.66;;;7.66;54.43
31299;BME280;17927;52.350;13.402;2023-03-04T02:48:11;101313.47;;;7.67;54.58
31299;BME280;17927;52.350;13.402;2023-03-04T02:50:40;101310.56;;;7.70;54.77
31299;BME280;17927;52.350;13.402;2023-03-04T02:53:06;101304.19;;;7.71;54.57
31299;BME280;17927;52.350;13.402;2023-03-04T02:55:32;101311.94;;;7.75;54.82
31299;BME280;17927;52.350;13.402;2023-03-04T02:57:57;101305.59;;;7.76;54.50
31299;BME280;17927;52.350;13.402;2023-03-04T03:00:23;101300.94;;;7.78;54.41
31299;BME280;17927;52.350;13.402;2023-03-04T03:02:48;101303.41;;;7.82;54.30
31299;BME280;17927;52.350;13.402;2023-03-04T03:05:13;101298.03;;;7.82;55.08
31299;BME280;17927;52.350;13.402;2023-03-04T03:07:39;101292.66;;;7.82;54.44
31299;BME280;17927;52.350;13.402;2023-03-04T03:10:04;101294.50;;;7.81;54.48
31299;BME280;17927;52.350;13.402;2023-03-04T03:12:29;101304.28;;;7.82;54.84
31299;BME280;17927;52.350;13.402;2023-03-04T03:14:55;101295.25;;;7.83;54.77
31299;BME280;17927;52.350;13.402;2023-03-04T03:17:20;101298.91;;;7.82;54.50
31299;BME280;17927;52.350;13.402;2023-03-04T03:19:45;101300.63;;;7.83;54.75
31299;BME280;17927;52.350;13.402;2023-03-04T03:22:10;101291.59;;;7.84;54.83
31299;BME280;17927;52.350;13.402;2023-03-04T03:24:36;101289.63;;;7.86;54.77
31299;BME280;17927;52.350;13.402;2023-03-04T03:27:01;101294.03;;;7.87;54.87
31299;BME280;17927;52.350;13.402;2023-03-04T03:29:26;101291.25;;;7.89;54.71
31299;BME280;17927;52.350;13.402;2023-03-04T03:31:52;101300.06;;;7.91;54.77
31299;BME280;17927;52.350;13.402;2023-03-04T03:34:17;101289.31;;;7.91;54.83
31299;BME280;17927;52.350;13.402;2023-03-04T03:36:42;101281.13;;;7.92;54.96
31299;BME280;17927;52.350;13.402;2023-03-04T03:39:07;101286.41;;;7.94;54.75
31299;BME280;17927;52.350;13.402;2023-03-04T03:41:33;101287.13;;;7.96;54.65
31299;BME280;17927;52.350;13.402;2023-03-04T03:43:58;101284.34;;;7.98;54.94
31299;BME280;17927;52.350;13.402;2023-03-04T03:46:23;101281.44;;;8.01;54.76
31299;BME280;17927;52.350;13.402;2023-03-04T03:48:49;101284.00;;;8.02;54.68
31299;BME280;17927;52.350;13.402;2023-03-04T03:51:14;101270.41;;;8.04;54.59
31299;BME280;17927;52.350;13.402;2023-03-04T03:53:39;101271.28;;;8.04;54.88
31299;BME280;17927;52.350;13.402;2023-03-04T03:56:05;101273.00;;;8.05;54.84
31299;BME280;17927;52.350;13.402;2023-03-04T03:58:30;101271.16;;;8.06;55.14
31299;BME280;17927;52.350;13.402;2023-03-04T04:00:55;101265.69;;;8.07;55.09
31299;BME280;17927;52.350;13.402;2023-03-04T04:03:21;101267.41;;;8.08;54.79
31299;BME280;17927;52.350;13.402;2023-03-04T04:05:46;101264.72;;;8.08;54.81
31299;BME280;17927;52.350;13.402;2023-03-04T04:08:13;101256.50;;;8.10;54.98
31299;BME280;17927;52.350;13.402;2023-03-04T04:10:39;101258.22;;;8.11;54.94
31299;BME280;17927;52.350;13.402;2023-03-04T04:13:04;101259.22;;;8.10;55.21
31299;BME280;17927;52.350;13.402;2023-03-04T04:15:29;101258.22;;;8.11;54.99
31299;BME280;17927;52.350;13.402;2023-03-04T04:17:55;101249.19;;;8.12;55.03
31299;BME280;17927;52.350;13.402;2023-03-04T04:20:20;101251.00;;;8.12;54.94
31299;BME280;17927;52.350;13.402;2023-03-04T04:22:45;101253.81;;;8.10;54.92
31299;BME280;17927;52.350;13.402;2023-03-04T04:25:11;101243.91;;;8.11;55.22
31299;BME280;17927;52.350;13.402;2023-03-04T04:27:36;101243.06;;;8.10;55.07
31299;BME280;17927;52.350;13.402;2023-03-04T04:30:02;101243.06;;;8.10;55.05
31299;BME280;17927;52.350;13.402;2023-03-04T04:32:28;101238.44;;;8.12;55.37
31299;BME280;17927;52.350;13.402;2023-03-04T04:34:53;101245.63;;;8.12;55.42
31299;BME280;17927;52.350;13.402;2023-03-04T04:37:18;101243.81;;;8.12;55.40
31299;BME280;17927;52.350;13.402;2023-03-04T04:39:44;101241.97;;;8.13;55.38
31299;BME280;17927;52.350;13.402;2023-03-04T04:42:09;101237.56;;;8.12;55.37
31299;BME280;17927;52.350;13.402;2023-03-04T04:44:35;101238.44;;;8.12;55.54
31299;BME280;17927;52.350;13.402;2023-03-04T04:47:03;101234.63;;;8.15;55.75
31299;BME280;17927;52.350;13.402;2023-03-04T04:49:28;101233.78;;;8.14;55.66
31299;BME280;17927;52.350;13.402;2023-03-04T04:51:53;101229.38;;;8.13;55.71
31299;BME280;17927;52.350;13.402;2023-03-04T04:54:18;101222.91;;;8.16;55.77
31299;BME280;17927;52.350;13.402;2023-03-04T04:56:44;101219.09;;;8.18;55.58
31299;BME280;17927;52.350;13.402;2023-03-04T04:59:09;101221.69;;;8.20;55.54
31299;BME280;17927;52.350;13.402;2023-03-04T05:01:34;101221.56;;;8.21;55.43
31299;BME280;17927;52.350;13.402;2023-03-04T05:03:59;101217.91;;;8.22;55.47
31299;BME280;17927;52.350;13.402;2023-03-04T05:06:25;101221.47;;;8.23;55.75
31299;BME280;17927;52.350;13.402;2023-03-04T05:08:51;101215.00;;;8.26;55.58
31299;BME280;17927;52.350;13.402;2023-03-04T05:11:20;101220.25;;;8.27;55.73
31299;BME280;17927;52.350;13.402;2023-03-04T05:13:49;101209.47;;;8.27;55.65
31299;BME280;17927;52.350;13.402;2023-03-04T05:16:15;101219.53;;;8.25;55.43
31299;BME280;17927;52.350;13.402;2023-03-04T05:18:41;101220.59;;;8.22;55.71
31299;BME280;17927;52.350;13.402;2023-03-04T05:21:07;101228.91;;;8.19;55.90
31299;BME280;17927;52.350;13.402;2023-03-04T05:23:34;101221.69;;;8.20;55.65
31299;BME280;17927;52.350;13.402;2023-03-04T05:26:00;101219.97;;;8.19;55.97
31299;BME280;17927;52.350;13.402;2023-03-04T05:28:25;101229.03;;;8.18;55.88
31299;BME280;17927;52.350;13.402;2023-03-04T05:30:51;101229.03;;;8.18;55.65
31299;BME280;17927;52.350;13.402;2023-03-04T05:33:17;101222.69;;;8.19;55.97
31299;BME280;17927;52.350;13.402;2023-03-04T05:35:44;101220.81;;;8.19;56.07
31299;BME280;17927;52.350;13.402;2023-03-04T05:38:11;101214.72;;;8.17;56.05
31299;BME280;17927;52.350;13.402;2023-03-04T05:40:37;101214.81;;;8.16;55.85
31299;BME280;17927;52.350;13.402;2023-03-04T05:43:03;101225.50;;;8.17;56.12
31299;BME280;17927;52.350;13.402;2023-03-04T05:45:28;101213.63;;;8.20;55.73
31299;BME280;17927;52.350;13.402;2023-03-04T05:47:54;101230.63;;;8.20;55.81
31299;BME280;17927;52.350;13.402;2023-03-04T05:50:20;101216.94;;;8.23;55.95
31299;BME280;17927;52.350;13.402;2023-03-04T05:52:46;101215.00;;;8.26;55.79
31299;BME280;17927;52.350;13.402;2023-03-04T05:55:11;101219.28;;;8.28;56.08
31299;BME280;17927;52.350;13.402;2023-03-04T05:57:37;101218.31;;;8.29;55.79
31299;BME280;17927;52.350;13.402;2023-03-04T06:00:03;101218.06;;;8.32;55.86
31299;BME280;17927;52.350;13.402;2023-03-04T06:02:30;101223.47;;;8.32;56.09
31299;BME280;17927;52.350;13.402;2023-03-04T06:04:55;101203.50;;;8.35;56.07
31299;BME280;17927;52.350;13.402;2023-03-04T06:07:20;101212.31;;;8.37;56.07
31299;BME280;17927;52.350;13.402;2023-03-04T06:09:46;101214.91;;;8.38;56.34
31299;BME280;17927;52.350;13.402;2023-03-04T06:12:11;101208.44;;;8.41;56.06
31299;BME280;17927;52.350;13.402;2023-03-04T06:14:36;101207.22;;;8.45;56.17
31299;BME280;17927;52.350;13.402;2023-03-04T06:17:02;101207.97;;;8.47;56.08
31299;BME280;17927;52.350;13.402;2023-03-04T06:19:27;101207.75;;;8.50;55.99
31299;BME280;17927;52.350;13.402;2023-03-04T06:21:52;101220.00;;;8.55;55.80
31299;BME280;17927;52.350;13.402;2023-03-04T06:24:18;101215.22;;;8.58;56.10
31299;BME280;17927;52.350;13.402;2023-03-04T06:26:43;101216.72;;;8.62;56.17
31299;BME280;17927;52.350;13.402;2023-03-04T06:29:08;101224.34;;;8.68;55.91
31299;BME280;17927;52.350;13.402;2023-03-04T06:31:34;101216.88;;;8.72;55.83
31299;BME280;17927;52.350;13.402;2023-03-04T06:33:59;101226.44;;;8.76;56.01
31299;BME280;17927;52.350;13.402;2023-03-04T06:36:24;101222.63;;;8.79;56.02
31299;BME280;17927;52.350;13.402;2023-03-04T06:38:49;101216.88;;;8.83;55.66
31299;BME280;17927;52.350;13.402;2023-03-04T06:41:15;101229.28;;;8.86;55.86
31299;BME280;17927;52.350;13.402;2023-03-04T06:43:40;101226.31;;;8.89;56.22
31299;BME280;17927;52.350;13.402;2023-03-04T06:46:06;101222.63;;;8.90;55.81
31299;BME280;17927;52.350;13.402;2023-03-04T06:48:32;101221.66;;;8.91;55.88
31299;BME280;17927;52.350;13.402;2023-03-04T06:50:57;101223.38;;;8.92;55.86
31299;BME280;17927;52.350;13.402;2023-03-04T06:53:22;101225.22;;;8.92;56.17
31299;BME280;17927;52.350;13.402;2023-03-04T06:55:48;101224.34;;;8.91;56.10
31299;BME280;17927;52.350;13.402;2023-03-04T06:58:13;101221.66;;;8.91;56.24
31299;BME280;17927;52.350;13.402;2023-03-04T07:00:39;101221.56;;;8.93;56.43
31299;BME280;17927;52.350;13.402;2023-03-04T07:03:04;101218.88;;;8.93;56.57
31299;BME280;17927;52.350;13.402;2023-03-04T07:05:30;101222.31;;;8.95;56.53
31299;BME280;17927;52.350;13.402;2023-03-04T07:07:55;101219.47;;;8.96;56.76
31299;BME280;17927;52.350;13.402;2023-03-04T07:10:20;101227.41;;;8.98;56.57
31299;BME280;17927;52.350;13.402;2023-03-04T07:12:46;101214.09;;;8.96;57.01
31299;BME280;17927;52.350;13.402;2023-03-04T07:15:11;101219.25;;;8.99;56.99
31299;BME280;17927;52.350;13.402;2023-03-04T07:17:36;101217.28;;;9.02;57.09
31299;BME280;17927;52.350;13.402;2023-03-04T07:20:02;101217.16;;;9.03;57.13
31299;BME280;17927;52.350;13.402;2023-03-04T07:22:27;101216.16;;;9.04;56.99
31299;BME280;17927;52.350;13.402;2023-03-04T07:24:53;101214.22;;;9.06;57.13
31299;BME280;17927;52.350;13.402;2023-03-04T07:27:18;101218.50;;;9.09;57.18
31299;BME280;17927;52.350;13.402;2023-03-04T07:29:43;101219.38;;;9.09;57.32
31299;BME280;17927;52.350;13.402;2023-03-04T07:32:09;101229.78;;;9.14;57.40
31299;BME280;17927;52.350;13.402;2023-03-04T07:34:34;101229.53;;;9.17;57.32
31299;BME280;17927;52.350;13.402;2023-03-04T07:36:59;101222.06;;;9.21;57.40
31299;BME280;17927;52.350;13.402;2023-03-04T07:39:25;101222.56;;;9.26;57.66
31299;BME280;17927;52.350;13.402;2023-03-04T07:41:50;101221.31;;;9.30;57.55
31299;BME280;17927;52.350;13.402;2023-03-04T07:44:15;101219.25;;;9.34;57.60
31299;BME280;17927;52.350;13.402;2023-03-04T07:46:40;101217.00;;;9.39;57.59
31299;BME280;17927;52.350;13.402;2023-03-04T07:49:06;101222.91;;;9.44;57.51
31299;BME280;17927;52.350;13.402;2023-03-04T07:51:31;101221.69;;;9.48;57.84
31299;BME280;17927;52.350;13.402;2023-03-04T07:53:59;101229.41;;;9.53;58.04
31299;BME280;17927;52.350;13.402;2023-03-04T07:56:27;101222.78;;;9.57;57.97
31299;BME280;17927;52.350;13.402;2023-03-04T07:58:53;101222.41;;;9.62;57.90
31299;BME280;17927;52.350;13.402;2023-03-04T08:01:41;101216.84;;;9.63;57.98
31299;BME280;17927;52.350;13.402;2023-03-04T08:04:06;101223.97;;;9.64;58.05
31299;BME280;17927;52.350;13.402;2023-03-04T08:06:32;101223.72;;;9.67;57.97
31299;BME280;17927;52.350;13.402;2023-03-04T08:09:03;101219.06;;;9.69;57.87
31299;BME280;17927;52.350;13.402;2023-03-04T08:11:32;101212.69;;;9.70;57.93
31299;BME280;17927;52.350;13.402;2023-03-04T08:13:58;101222.50;;;9.71;57.60
31299;BME280;17927;52.350;13.402;2023-03-04T08:16:23;101223.09;;;9.75;58.04
31299;BME280;17927;52.350;13.402;2023-03-04T08:18:52;101232.66;;;9.79;57.77
31299;BME280;17927;52.350;13.402;2023-03-04T08:21:19;101218.78;;;9.84;58.18
31299;BME280;17927;52.350;13.402;2023-03-04T08:23:45;101221.94;;;9.89;58.03
31299;BME280;17927;52.350;13.402;2023-03-04T08:26:14;101230.53;;;9.94;58.27
31299;BME280;17927;52.350;13.402;2023-03-04T08:28:40;101231.00;;;9.99;57.82
31299;BME280;17927;52.350;13.402;2023-03-04T08:31:05;101221.69;;;10.03;57.94
31299;BME280;17927;52.350;13.402;2023-03-04T08:33:32;101222.13;;;10.09;57.74
31299;BME280;17927;52.350;13.402;2023-03-04T08:35:57;101221.75;;;10.13;57.82
31299;BME280;17927;52.350;13.402;2023-03-04T08:38:22;101220.66;;;10.16;57.38
31299;BME280;17927;52.350;13.402;2023-03-04T08:40:55;101215.69;;;10.21;57.46
31299;BME280;17927;52.350;13.402;2023-03-04T08:43:21;101214.59;;;10.24;57.19
31299;BME280;17927;52.350;13.402;2023-03-04T08:45:47;101211.66;;;10.27;57.51
31299;BME280;17927;52.350;13.402;2023-03-04T08:48:12;101208.66;;;10.30;57.14
31299;BME280;17927;52.350;13.402;2023-03-04T08:50:37;101208.41;;;10.33;57.24
31299;BME280;17927;52.350;13.402;2023-03-04T08:53:03;101201.88;;;10.35;56.85
31299;BME280;17927;52.350;13.402;2023-03-04T08:55:28;101208.00;;;10.38;56.72
31299;BME280;17927;52.350;13.402;2023-03-04T08:57:53;101204.25;;;10.40;57.01
31299;BME280;17927;52.350;13.402;2023-03-04T09:00:18;101205.97;;;10.41;56.80
31299;BME280;17927;52.350;13.402;2023-03-04T09:02:45;101203.97;;;10.43;56.54
31299;BME280;17927;52.350;13.402;2023-03-04T09:05:10;101200.28;;;10.44;56.79
31299;BME280;17927;52.350;13.402;2023-03-04T09:07:35;101205.56;;;10.46;56.68
31299;BME280;17927;52.350;13.402;2023-03-04T09:10:00;101196.47;;;10.47;56.57
31299;BME280;17927;52.350;13.402;2023-03-04T09:12:26;101201.72;;;10.48;56.74
31299;BME280;17927;52.350;13.402;2023-03-04T09:14:51;101198.03;;;10.49;56.31
31299;BME280;17927;52.350;13.402;2023-03-04T09:17:16;101197.78;;;10.53;56.36
31299;BME280;17927;52.350;13.402;2023-03-04T09:19:41;101197.66;;;10.54;56.51
31299;BME280;17927;52.350;13.402;2023-03-04T09:22:07;101200.97;;;10.58;56.41
31299;BME280;17927;52.350;13.402;2023-03-04T09:24:32;101207.78;;;10.62;56.29
31299;BME280;17927;52.350;13.402;2023-03-04T09:26:57;101183.22;;;10.65;56.31
31299;BME280;17927;52.350;13.402;2023-03-04T09:29:23;101203.59;;;10.69;56.21
31299;BME280;17927;52.350;13.402;2023-03-04T09:31:48;101193.34;;;10.73;56.27
31299;BME280;17927;52.350;13.402;2023-03-04T09:34:14;101191.97;;;10.78;56.32
31299;BME280;17927;52.350;13.402;2023-03-04T09:36:39;101195.97;;;10.84;56.38
31299;BME280;17927;52.350;13.402;2023-03-04T09:39:04;101195.44;;;10.90;56.11
31299;BME280;17927;52.350;13.402;2023-03-04T09:41:42;101203.72;;;10.99;55.86
31299;BME280;17927;52.350;13.402;2023-03-04T09:44:23;101196.06;;;11.04;56.03
31299;BME280;17927;52.350;13.402;2023-03-04T09:46:54;101193.69;;;11.10;55.92
31299;BME280;17927;52.350;13.402;2023-03-04T09:49:22;101198.69;;;11.15;56.06
31299;BME280;17927;52.350;13.402;2023-03-04T09:52:11;101190.75;;;11.23;55.78
31299;BME280;17927;52.350;13.402;2023-03-04T09:55:02;101195.03;;;11.26;55.61
31299;BME280;17927;52.350;13.402;2023-03-04T09:57:55;101187.50;;;11.30;55.38
31299;BME280;17927;52.350;13.402;2023-03-04T10:00:31;101187.09;;;11.34;55.24
31299;BME280;17927;52.350;13.402;2023-03-04T10:03:10;101194.78;;;11.39;54.76
31299;BME280;17927;52.350;13.402;2023-03-04T10:06:15;101184.81;;;11.39;54.76
31299;BME280;17927;52.350;13.402;2023-03-04T10:08:58;101191.81;;;11.42;54.75
31299;BME280;17927;52.350;13.402;2023-03-04T10:11:39;101186.09;;;11.45;54.65
31299;BME280;17927;52.350;13.402;2023-03-04T10:16:48;101187.44;;;11.51;54.34
31299;BME280;17927;52.350;13.402;2023-03-04T10:21:56;101184.84;;;11.49;54.57
31299;BME280;17927;52.350;13.402;2023-03-04T10:24:27;101193.25;;;11.56;53.94
31299;BME280;17927;52.350;13.402;2023-03-04T10:26:56;101193.00;;;11.59;53.53
31299;BME280;17927;52.350;13.402;2023-03-04T10:29:26;101182.63;;;11.64;53.65
31299;BME280;17927;52.350;13.402;2023-03-04T10:31:54;101192.03;;;11.70;53.39
31299;BME280;17927;52.350;13.402;2023-03-04T10:34:19;101186.91;;;11.77;53.15
31299;BME280;17927;52.350;13.402;2023-03-04T10:37:00;101182.63;;;11.84;52.99
31299;BME280;17927;52.350;13.402;2023-03-04T10:39:33;101188.63;;;11.87;52.68
31299;BME280;17927;52.350;13.402;2023-03-04T10:42:02;101178.22;;;11.93;51.86
31299;BME280;17927;52.350;13.402;2023-03-04T10:44:28;101191.47;;;11.96;51.47
31299;BME280;17927;52.350;13.402;2023-03-04T10:46:55;101190.38;;;11.98;51.18
31299;BME280;17927;52.350;13.402;2023-03-04T10:49:22;101199.34;;;11.99;50.49
31299;BME280;17927;52.350;13.402;2023-03-04T10:51:53;101184.06;;;11.98;49.88
31299;BME280;17927;52.350;13.402;2023-03-04T10:54:28;101196.06;;;11.95;49.69
31299;BME280;17927;52.350;13.402;2023-03-04T10:57:19;101187.22;;;11.93;49.34
31299;BME280;17927;52.350;13.402;2023-03-04T10:59:47;101191.75;;;11.93;49.38
31299;BME280;17927;52.350;13.402;2023-03-04T11:02:31;101193.34;;;11.95;49.28
31299;BME280;17927;52.350;13.402;2023-03-04T11:07:42;101189.97;;;12.03;49.89
31299;BME280;17927;52.350;13.402;2023-03-04T11:10:28;101189.38;;;12.09;49.52
31299;BME280;17927;52.350;13.402;2023-03-04T11:15:23;101189.38;;;12.19;49.66
31299;BME280;17927;52.350;13.402;2023-03-04T11:18:02;101186.22;;;12.24;49.63
31299;BME280;17927;52.350;13.402;2023-03-04T11:20:32;101170.13;;;12.32;49.72
31299;BME280;17927;52.350;13.402;2023-03-04T11:23:03;101178.53;;;12.39;49.34
31299;BME280;17927;52.350;13.402;2023-03-04T11:25:32;101183.50;;;12.43;49.55
31299;BME280;17927;52.350;13.402;2023-03-04T11:28:21;101184.06;;;12.47;48.84
31299;BME280;17927;52.350;13.402;2023-03-04T11:30:54;101177.53;;;12.49;49.10
31299;BME280;17927;52.350;13.402;2023-03-04T11:33:30;101187.22;;;12.52;48.84
31299;BME280;17927;52.350;13.402;2023-03-04T11:36:28;101185.22;;;12.54;48.66
31299;BME280;17927;52.350;13.402;2023-03-04T11:38:57;101189.91;;;12.52;48.78
31299;BME280;17927;52.350;13.402;2023-03-04T11:41:35;101202.31;;;12.55;48.38
31299;BME280;17927;52.350;13.402;2023-03-04T11:44:05;101195.34;;;12.52;48.27
31299;BME280;17927;52.350;13.402;2023-03-04T11:46:56;101193.78;;;12.49;48.22
31299;BME280;17927;52.350;13.402;2023-03-04T11:52:34;101201.34;;;12.36;48.08
31299;BME280;17927;52.350;13.402;2023-03-04T11:57:57;101192.09;;;12.29;47.67
31299;BME280;17927;52.350;13.402;2023-03-04T12:00:51;101195.78;;;12.28;48.06
31299;BME280;17927;52.350;13.402;2023-03-04T12:07:17;101187.81;;;12.26;47.95
31299;BME280;17927;52.350;13.402;2023-03-04T12:09:27;101184.94;;;12.28;47.83
31299;BME280;17927;52.350;13.402;2023-03-04T12:14:45;101197.22;;;12.32;47.87
31299;BME280;17927;52.350;13.402;2023-03-04T12:17:34;101177.97;;;12.35;47.34
31299;BME280;17927;52.350;13.402;2023-03-04T12:20:34;101193.50;;;12.33;46.51
31299;BME280;17927;52.350;13.402;2023-03-04T12:23:14;101188.53;;;12.28;46.72
31299;BME280;17927;52.350;13.402;2023-03-04T12:26:16;101196.06;;;12.25;46.43
31299;BME280;17927;52.350;13.402;2023-03-04T12:31:41;101183.56;;;12.14;46.20
31299;BME280;17927;52.350;13.402;2023-03-04T12:34:29;101184.56;;;12.13;46.16
31299;BME280;17927;52.350;13.402;2023-03-04T12:37:12;101187.38;;;12.11;46.13
31299;BME280;17927;52.350;13.402;2023-03-04T12:43:00;101188.25;;;12.12;46.25
31299;BME280;17927;52.350;13.402;2023-03-04T12:45:45;101179.81;;;12.15;46.20
31299;BME280;17927;52.350;13.402;2023-03-04T12:56:32;101186.25;;;12.14;45.97
31299;BME280;17927;52.350;13.402;2023-03-04T12:59:01;101184.41;;;12.14;45.94
31299;BME280;17927;52.350;13.402;2023-03-04T13:01:40;101179.53;;;12.18;45.47
31299;BME280;17927;52.350;13.402;2023-03-04T13:04:22;101182.97;;;12.20;45.70
31299;BME280;17927;52.350;13.402;2023-03-04T13:07:11;101181.81;;;12.23;45.70
31299;BME280;17927;52.350;13.402;2023-03-04T13:10:03;101178.09;;;12.24;45.49
31299;BME280;17927;52.350;13.402;2023-03-04T13:15:15;101173.13;;;12.29;45.77
31299;BME280;17927;52.350;13.402;2023-03-04T13:17:49;101177.53;;;12.30;45.16
31299;BME280;17927;52.350;13.402;2023-03-04T13:23:00;101189.38;;;12.29;45.04
31299;BME280;17927;52.350;13.402;2023-03-04T13:38:31;101189.38;;;12.19;44.79
31299;BME280;17927;52.350;13.402;2023-03-04T13:41:15;101197.94;;;12.14;44.91
31299;BME280;17927;52.350;13.402;2023-03-04T13:43:55;101182.25;;;12.08;44.79
31299;BME280;17927;52.350;13.402;2023-03-04T13:51:38;101191.22;;;11.99;44.85
31299;BME280;17927;52.350;13.402;2023-03-04T13:56:47;101183.78;;;11.91;45.05
31299;BME280;17927;52.350;13.402;2023-03-04T13:59:20;101188.47;;;11.89;45.16
31299;BME280;17927;52.350;13.402;2023-03-04T14:04:19;101184.78;;;11.90;45.04